Weather at Crumlin Children's Hospital Heliport

Public forecast

Using degrees Celsius for public forecast. Weather courtesy of forecast.io.

Closest aviation weather report (METAR) to Crumlin Children's Hospital Heliport

Closest report is Casement Air Base, 4.9 nm (9.2 km) WSW.

2024/07/21 05:00 (retrieved 11 minutes ago)

EIME 210500Z 24011KT 9999 FEW010 BKN048 BKN180 11/10 Q1009

Closest aviation forecast (TAF) to Crumlin Children's Hospital Heliport

Forecast is more than 12 hours old.

Closest forecast is RAF Waddington, 208.4 nm (385.9 km) E.

2024/07/19 18:36 (retrieved 1 day ago)

TAF TAF EGXW 191830Z 1918/2012 CNL